createdAt,value
2018-07-01T00:01:14.193Z,97556.16
2018-07-01T00:03:43.937Z,97557.47
2018-07-01T00:06:13.778Z,97553.03
2018-07-01T00:08:43.510Z,97557.91
2018-07-01T00:11:13.443Z,97564.58
2018-07-01T00:13:43.146Z,97555.28
2018-07-01T00:16:13.457Z,97554.91
2018-07-01T00:18:43.163Z,97558.02
2018-07-01T00:21:13.185Z,97558.95
2018-07-01T00:23:43.103Z,97552.06
2018-07-01T00:26:13.059Z,97548.23
2018-07-01T00:28:42.917Z,97549.66
2018-07-01T00:31:12.925Z,97549.06
2018-07-01T00:33:43.045Z,97546.98
2018-07-01T00:36:12.948Z,97551.89
2018-07-01T00:38:43.039Z,97541.63
2018-07-01T00:41:12.930Z,97543.16
2018-07-01T00:43:43.137Z,97545.51
2018-07-01T00:46:12.919Z,97547.07
2018-07-01T00:48:42.718Z,97545.01
2018-07-01T00:51:12.661Z,97549.31
2018-07-01T00:53:43.111Z,97541.30
2018-07-01T00:56:12.865Z,97553.28
2018-07-01T00:58:42.770Z,97552.75
2018-07-01T01:01:12.486Z,97554.92
2018-07-01T01:03:42.432Z,97549.25
2018-07-01T01:06:12.520Z,97549.47
2018-07-01T01:08:42.831Z,97554.70
2018-07-01T01:11:12.944Z,97551.05
2018-07-01T01:13:42.848Z,97548.05
2018-07-01T01:16:12.691Z,97542.80
2018-07-01T01:18:42.925Z,97543.31
2018-07-01T01:21:12.886Z,97547.11
2018-07-01T01:23:42.722Z,97546.73
2018-07-01T01:26:12.423Z,97553.61
2018-07-01T01:28:42.364Z,97544.02
2018-07-01T01:31:12.440Z,97541.38
2018-07-01T01:33:42.476Z,97550.33
2018-07-01T01:36:12.526Z,97544.94
2018-07-01T01:38:43.571Z,97543.80
2018-07-01T01:41:17.318Z,97538.38
2018-07-01T01:43:52.294Z,97535.25
2018-07-01T01:46:31.373Z,97547.52
2018-07-01T01:49:20.710Z,97544.20
2018-07-01T01:51:57.770Z,97533.56
2018-07-01T01:54:34.648Z,97532.15
2018-07-01T01:57:12.350Z,97531.27
2018-07-01T01:59:48.768Z,97536.86
2018-07-01T02:02:38.031Z,97539.04
2018-07-01T02:05:15.809Z,97539.94
2018-07-01T02:07:52.606Z,97536.36
2018-07-01T02:10:22.902Z,97530.13
2018-07-01T02:12:52.972Z,97536.89
2018-07-01T02:15:40.882Z,97529.14
2018-07-01T02:18:11.203Z,97539.44
2018-07-01T02:20:42.406Z,97535.27
2018-07-01T02:23:15.812Z,97541.92
2018-07-01T02:25:46.051Z,97544.44
2018-07-01T02:28:15.961Z,97542.23
2018-07-01T02:30:45.731Z,97540.20
2018-07-01T02:33:15.602Z,97530.18
2018-07-01T02:35:45.551Z,97534.69
2018-07-01T02:38:15.447Z,97530.87
2018-07-01T02:40:45.269Z,97530.05
2018-07-01T02:43:15.151Z,97533.48
2018-07-01T02:45:45.256Z,97538.52
2018-07-01T02:48:15.338Z,97533.17
2018-07-01T02:50:45.092Z,97538.03
2018-07-01T02:53:14.924Z,97537.93
2018-07-01T02:55:44.925Z,97544.16
2018-07-01T02:58:14.865Z,97537.06
2018-07-01T03:00:44.666Z,97541.55
2018-07-01T03:03:14.547Z,97534.97
2018-07-01T03:05:44.292Z,97534.69
2018-07-01T03:08:14.218Z,97535.90
2018-07-01T03:10:44.125Z,97534.69
2018-07-01T03:13:13.925Z,97542.92
2018-07-01T03:15:43.716Z,97538.27
2018-07-01T03:18:13.597Z,97536.27
2018-07-01T03:20:43.387Z,97541.85
2018-07-01T03:23:13.455Z,97542.03
2018-07-01T03:25:43.657Z,97542.95
2018-07-01T03:28:13.610Z,97540.78
2018-07-01T03:30:43.553Z,97540.52
2018-07-01T03:33:13.390Z,97541.81
2018-07-01T03:35:43.112Z,97543.30
2018-07-01T03:38:12.997Z,97542.54
2018-07-01T03:40:42.910Z,97544.40
2018-07-01T03:43:13.037Z,97540.41
2018-07-01T03:45:42.930Z,97541.09
2018-07-01T03:48:14.077Z,97543.95
2018-07-01T03:50:43.956Z,97546.73
2018-07-01T03:53:15.701Z,97545.25
2018-07-01T03:55:45.528Z,97541.81
2018-07-01T03:58:17.088Z,97546.36
2018-07-01T04:00:47.014Z,97548.42
2018-07-01T04:03:18.515Z,97545.33
2018-07-01T04:05:48.799Z,97547.88
2018-07-01T04:08:20.174Z,97546.22
2018-07-01T04:10:50.196Z,97551.02
2018-07-01T04:13:21.374Z,97560.24
2018-07-01T04:15:51.336Z,97562.06
2018-07-01T04:18:21.855Z,97558.03
2018-07-01T04:20:51.816Z,97552.80
2018-07-01T04:23:23.215Z,97552.22
2018-07-01T04:25:53.256Z,97556.31
2018-07-01T04:28:23.997Z,97553.94
2018-07-01T04:30:54.064Z,97554.00
2018-07-01T04:33:25.718Z,97556.44
2018-07-01T04:35:55.551Z,97547.89
2018-07-01T04:38:26.913Z,97553.91
2018-07-01T04:40:56.732Z,97552.78
2018-07-01T04:43:27.433Z,97553.55
2018-07-01T04:45:57.412Z,97560.05
2018-07-01T04:48:29.014Z,97560.45
2018-07-01T04:50:58.973Z,97561.92
2018-07-01T04:53:29.877Z,97568.75
2018-07-01T04:55:59.975Z,97571.39
2018-07-01T04:58:31.653Z,97574.17
2018-07-01T05:01:01.413Z,97567.61
2018-07-01T05:03:31.381Z,97571.34
2018-07-01T05:06:01.254Z,97571.03
2018-07-01T05:08:31.039Z,97572.28
2018-07-01T05:11:01.021Z,97572.70
2018-07-01T05:13:32.212Z,97573.68
2018-07-01T05:16:02.213Z,97577.28
2018-07-01T05:18:32.286Z,97581.02
2018-07-01T05:21:02.172Z,97580.45
2018-07-01T05:23:31.971Z,97580.93
2018-07-01T05:26:02.276Z,97578.70
2018-07-01T05:28:32.270Z,97582.89
2018-07-01T05:31:02.224Z,97581.34
2018-07-01T05:33:31.977Z,97575.76
2018-07-01T05:36:01.932Z,97571.81
2018-07-01T05:38:31.852Z,97570.02
2018-07-01T05:41:01.773Z,97572.30
2018-07-01T05:43:31.511Z,97572.78
2018-07-01T05:46:01.554Z,97574.32
2018-07-01T05:48:31.432Z,97576.12
2018-07-01T05:51:01.434Z,97573.72
2018-07-01T05:53:31.172Z,97575.25
2018-07-01T05:56:01.392Z,97577.03
2018-07-01T05:58:31.451Z,97579.77
2018-07-01T06:01:01.532Z,97579.98
2018-07-01T06:03:32.013Z,97578.31
2018-07-01T06:06:02.318Z,97576.97
2018-07-01T06:08:33.255Z,97577.55
2018-07-01T06:11:04.469Z,97575.47
2018-07-01T06:13:34.409Z,97571.22
2018-07-01T06:16:04.191Z,97567.84
2018-07-01T06:18:34.130Z,97569.23
2018-07-01T06:21:06.197Z,97567.85
2018-07-01T06:23:36.032Z,97570.19
2018-07-01T06:26:06.712Z,97565.59
2018-07-01T06:28:36.560Z,97564.22
2018-07-01T06:31:06.546Z,97560.71
2018-07-01T06:33:36.624Z,97559.61
2018-07-01T06:36:06.436Z,97559.09
2018-07-01T06:38:36.503Z,97564.80
2018-07-01T06:41:06.221Z,97560.13
2018-07-01T06:43:36.359Z,97568.14
2018-07-01T06:46:07.651Z,97560.77
2018-07-01T06:48:37.820Z,97556.48
2018-07-01T06:51:08.175Z,97559.97
2018-07-01T06:53:38.272Z,97551.39
2018-07-01T06:56:08.303Z,97552.03
2018-07-01T06:58:38.130Z,97554.41
2018-07-01T07:01:08.020Z,97556.34
2018-07-01T07:03:38.100Z,97553.52
2018-07-01T07:06:07.947Z,97562.50
2018-07-01T07:08:38.010Z,97561.68
2018-07-01T07:11:08.686Z,97556.08
2018-07-01T07:13:38.971Z,97560.03
2018-07-01T07:16:08.971Z,97559.91
2018-07-01T07:18:39.079Z,97560.37
2018-07-01T07:21:08.760Z,97565.18
2018-07-01T07:23:39.187Z,97567.81
2018-07-01T07:26:09.292Z,97555.84
2018-07-01T07:28:39.602Z,97555.02
2018-07-01T07:31:09.543Z,97560.48
2018-07-01T07:33:51.544Z,97561.87
2018-07-01T07:36:21.451Z,97557.41
2018-07-01T07:38:51.843Z,97562.02
2018-07-01T07:41:21.736Z,97554.45
2018-07-01T07:43:51.648Z,97561.23
2018-07-01T07:46:21.385Z,97556.34
2018-07-01T07:48:51.237Z,97554.84
2018-07-01T07:51:21.196Z,97558.80
2018-07-01T07:53:51.087Z,97560.28
2018-07-01T07:56:20.787Z,97553.61
2018-07-01T07:58:50.872Z,97553.61
2018-07-01T08:01:20.673Z,97555.18
2018-07-01T08:03:50.768Z,97550.19
2018-07-01T08:06:20.498Z,97550.89
2018-07-01T08:08:50.316Z,97549.61
2018-07-01T08:11:20.321Z,97550.49
2018-07-01T08:13:50.394Z,97553.03
2018-07-01T08:16:20.163Z,97550.98
2018-07-01T08:18:50.040Z,97544.87
2018-07-01T08:21:19.916Z,97547.13
2018-07-01T08:23:49.723Z,97543.55
2018-07-01T08:26:19.559Z,97542.37
2018-07-01T08:28:49.606Z,97538.44
2018-07-01T08:31:19.487Z,97537.97
2018-07-01T08:33:49.313Z,97537.22
2018-07-01T08:36:19.191Z,97536.22
2018-07-01T08:38:49.051Z,97536.72
2018-07-01T08:41:18.998Z,97534.17
2018-07-01T08:43:48.856Z,97539.08
2018-07-01T08:46:18.651Z,97536.94
2018-07-01T08:48:48.646Z,97535.55
2018-07-01T08:51:18.378Z,97533.30
2018-07-01T08:53:48.263Z,97533.95
2018-07-01T08:56:17.944Z,97529.74
2018-07-01T08:58:47.667Z,97529.03
2018-07-01T09:01:17.576Z,97529.42
2018-07-01T09:03:48.451Z,97529.13
2018-07-01T09:06:18.209Z,97525.23
2018-07-01T09:08:49.086Z,97521.50
2018-07-01T09:11:19.026Z,97524.27
2018-07-01T09:13:50.262Z,97527.50
2018-07-01T09:16:20.146Z,97526.39
2018-07-01T09:18:50.891Z,97520.59
2018-07-01T09:21:20.995Z,97522.95
2018-07-01T09:23:52.618Z,97521.36
2018-07-01T09:26:22.548Z,97529.65
2018-07-01T09:28:54.429Z,97523.39
2018-07-01T09:31:24.450Z,97524.23
2018-07-01T09:33:54.856Z,97524.16
2018-07-01T09:36:24.730Z,97525.98
2018-07-01T09:38:54.905Z,97523.66
2018-07-01T09:41:25.512Z,97528.59
2018-07-01T09:43:56.927Z,97530.37
2018-07-01T09:46:26.905Z,97520.84
2018-07-01T09:48:56.694Z,97516.95
2018-07-01T09:51:26.554Z,97514.98
2018-07-01T09:53:56.554Z,97521.69
2018-07-01T09:56:26.664Z,97519.91
2018-07-01T09:58:56.632Z,97516.95
2018-07-01T10:01:26.590Z,97503.87
2018-07-01T10:03:57.555Z,97510.44
2018-07-01T10:06:28.222Z,97514.80
2018-07-01T10:08:59.165Z,97515.09
2018-07-01T10:11:29.440Z,97510.16
2018-07-01T10:13:59.714Z,97502.52
2018-07-01T10:16:30.156Z,97500.72
2018-07-01T10:19:00.131Z,97498.45
2018-07-01T10:21:30.014Z,97495.48
2018-07-01T10:23:59.988Z,97494.00
2018-07-01T10:26:29.950Z,97492.39
2018-07-01T10:29:12.104Z,97499.39
2018-07-01T10:31:42.765Z,97493.61
2018-07-01T10:34:14.039Z,97484.66
2018-07-01T10:36:44.194Z,97481.19
2018-07-01T10:39:16.890Z,97480.26
2018-07-01T10:41:47.168Z,97480.42
2018-07-01T10:44:18.627Z,97479.50
2018-07-01T10:46:48.393Z,97484.16
2018-07-01T10:49:19.686Z,97478.14
2018-07-01T10:51:49.603Z,97479.26
2018-07-01T10:54:20.774Z,97477.11
2018-07-01T10:56:50.628Z,97481.64
2018-07-01T10:59:20.949Z,97481.01
2018-07-01T11:01:50.854Z,97478.60
2018-07-01T11:04:20.758Z,97474.12
2018-07-01T11:06:50.539Z,97475.95
2018-07-01T11:09:20.675Z,97465.67
2018-07-01T11:11:50.958Z,97464.02
2018-07-01T11:14:20.815Z,97458.34
2018-07-01T11:16:50.847Z,97461.45
2018-07-01T11:19:20.901Z,97454.02
2018-07-01T11:21:50.768Z,97453.19
2018-07-01T11:24:20.632Z,97453.72
2018-07-01T11:26:50.735Z,97450.56
2018-07-01T11:29:20.450Z,97450.89
2018-07-01T11:31:50.348Z,97452.72
2018-07-01T11:34:20.149Z,97445.36
2018-07-01T11:36:49.971Z,97442.61
2018-07-01T11:39:19.713Z,97441.21
2018-07-01T11:41:49.614Z,97443.14
2018-07-01T11:44:19.465Z,97432.95
2018-07-01T11:46:49.334Z,97433.55
2018-07-01T11:49:19.374Z,97430.69
2018-07-01T11:51:49.266Z,97430.47
2018-07-01T11:54:19.242Z,97425.03
2018-07-01T11:56:49.152Z,97427.05
2018-07-01T11:59:19.090Z,97423.30
2018-07-01T12:01:49.105Z,97418.84
2018-07-01T12:04:22.807Z,97415.89
2018-07-01T12:06:52.770Z,97421.58
2018-07-01T12:09:22.531Z,97416.30
2018-07-01T12:11:52.543Z,97420.86
2018-07-01T12:14:22.361Z,97424.70
2018-07-01T12:16:52.235Z,97418.27
2018-07-01T12:19:22.954Z,97406.55
2018-07-01T12:21:52.976Z,97407.38
2018-07-01T12:24:22.725Z,97417.17
2018-07-01T12:26:52.812Z,97407.40
2018-07-01T12:29:22.829Z,97402.95
2018-07-01T12:31:52.891Z,97393.70
2018-07-01T12:34:22.775Z,97402.32
2018-07-01T12:36:53.166Z,97397.45
2018-07-01T12:39:23.158Z,97395.76
2018-07-01T12:41:53.324Z,97387.85
2018-07-01T12:44:23.326Z,97395.39
2018-07-01T12:46:53.448Z,97394.34
2018-07-01T12:49:23.492Z,97390.97
2018-07-01T12:51:53.638Z,97393.34
2018-07-01T12:54:23.775Z,97389.72
2018-07-01T12:56:54.038Z,97378.95
2018-07-01T12:59:24.128Z,97383.77
2018-07-01T13:01:54.385Z,97379.93
2018-07-01T13:04:24.299Z,97372.72
2018-07-01T13:06:54.379Z,97371.95
2018-07-01T13:09:24.231Z,97373.61
2018-07-01T13:11:54.260Z,97375.59
2018-07-01T13:14:25.557Z,97375.30
2018-07-01T13:16:55.691Z,97367.28
2018-07-01T13:19:25.744Z,97365.52
2018-07-01T13:21:55.818Z,97371.13
2018-07-01T13:24:25.852Z,97366.63
2018-07-01T13:26:55.959Z,97367.77
2018-07-01T13:29:26.090Z,97352.75
2018-07-01T13:31:56.305Z,97359.42
2018-07-01T13:34:26.253Z,97352.23
2018-07-01T13:36:56.632Z,97353.97
2018-07-01T13:39:26.662Z,97354.41
2018-07-01T13:41:56.639Z,97354.20
2018-07-01T13:44:26.838Z,97350.42
2018-07-01T13:46:56.929Z,97353.59
2018-07-01T13:49:27.077Z,97350.91
2018-07-01T13:51:57.088Z,97348.92
2018-07-01T13:54:27.188Z,97352.11
2018-07-01T13:56:57.335Z,97352.48
2018-07-01T13:59:27.464Z,97342.33
2018-07-01T14:01:57.492Z,97351.69
2018-07-01T14:04:27.483Z,97345.38
2018-07-01T14:06:57.615Z,97340.59
2018-07-01T14:09:27.684Z,97337.45
2018-07-01T14:11:58.021Z,97337.04
2018-07-01T14:14:28.001Z,97336.20
2018-07-01T14:16:58.280Z,97339.05
2018-07-01T14:19:28.336Z,97332.36
2018-07-01T14:21:58.407Z,97340.67
2018-07-01T14:24:28.555Z,97342.53
2018-07-01T14:26:58.560Z,97345.84
2018-07-01T14:29:28.695Z,97340.00
2018-07-01T14:31:58.662Z,97341.64
2018-07-01T14:34:28.643Z,97344.88
2018-07-01T14:36:58.841Z,97337.63
2018-07-01T14:39:28.946Z,97340.47
2018-07-01T14:41:59.141Z,97341.77
2018-07-01T14:44:29.249Z,97337.89
2018-07-01T14:46:59.496Z,97345.27
2018-07-01T14:49:31.373Z,97347.11
2018-07-01T14:52:01.507Z,97340.42
2018-07-01T14:54:31.691Z,97341.35
2018-07-01T14:57:01.916Z,97342.83
2018-07-01T14:59:31.839Z,97338.61
2018-07-01T15:02:02.028Z,97339.08
2018-07-01T15:04:31.965Z,97344.05
2018-07-01T15:07:02.096Z,97344.81
2018-07-01T15:09:32.155Z,97342.61
2018-07-01T15:12:02.234Z,97355.97
2018-07-01T15:14:32.175Z,97358.09
2018-07-01T15:17:02.256Z,97362.91
2018-07-01T15:19:32.127Z,97360.94
2018-07-01T15:22:02.240Z,97359.91
2018-07-01T15:24:31.981Z,97363.94
2018-07-01T15:27:02.063Z,97350.86
2018-07-01T15:29:32.122Z,97355.22
2018-07-01T15:32:02.181Z,97350.23
2018-07-01T15:34:32.261Z,97356.52
2018-07-01T15:37:02.362Z,97363.09
2018-07-01T15:39:32.233Z,97368.06
2018-07-01T15:42:02.221Z,97373.75
2018-07-01T15:44:32.270Z,97365.25
2018-07-01T15:47:02.380Z,97370.09
2018-07-01T15:49:32.575Z,97376.57
2018-07-01T15:52:02.507Z,97371.36
2018-07-01T15:54:32.308Z,97369.70
2018-07-01T15:57:02.389Z,97370.08
2018-07-01T15:59:32.480Z,97364.91
2018-07-01T16:02:02.369Z,97364.08
2018-07-01T16:04:32.173Z,97359.30
2018-07-01T16:07:02.222Z,97358.13
2018-07-01T16:09:32.243Z,97354.17
2018-07-01T16:12:02.163Z,97366.18
2018-07-01T16:14:32.112Z,97373.62
2018-07-01T16:17:02.034Z,97366.58
2018-07-01T16:19:31.853Z,97373.84
2018-07-01T16:22:01.861Z,97378.47
2018-07-01T16:24:31.893Z,97381.73
2018-07-01T16:27:06.844Z,97377.59
2018-07-01T16:29:38.377Z,97382.81
2018-07-01T16:32:08.475Z,97384.56
2018-07-01T16:34:38.358Z,97391.23
2018-07-01T16:37:08.325Z,97399.98
2018-07-01T16:39:38.339Z,97394.87
2018-07-01T16:42:08.280Z,97402.44
2018-07-01T16:44:38.109Z,97404.00
2018-07-01T16:47:08.181Z,97406.01
2018-07-01T16:49:38.222Z,97409.01
2018-07-01T16:52:08.108Z,97409.28
2018-07-01T16:54:38.407Z,97418.20
2018-07-01T16:57:08.861Z,97418.60
2018-07-01T16:59:38.891Z,97421.80
2018-07-01T17:02:08.963Z,97430.96
2018-07-01T17:04:39.503Z,97422.67
2018-07-01T17:07:09.425Z,97418.70
2018-07-01T17:09:39.163Z,97425.16
2018-07-01T17:12:09.092Z,97433.46
2018-07-01T17:14:38.984Z,97429.75
2018-07-01T17:17:08.926Z,97437.70
2018-07-01T17:19:38.656Z,97442.13
2018-07-01T17:22:08.731Z,97444.50
2018-07-01T17:24:38.731Z,97445.48
2018-07-01T17:27:10.424Z,97450.52
2018-07-01T17:29:40.539Z,97458.78
2018-07-01T17:32:16.055Z,97465.58
2018-07-01T17:34:47.197Z,97472.78
2018-07-01T17:37:17.154Z,97478.71
2018-07-01T17:39:47.140Z,97470.75
2018-07-01T17:42:17.226Z,97466.00
2018-07-01T17:44:47.016Z,97473.36
2018-07-01T17:47:16.934Z,97475.75
2018-07-01T17:49:47.174Z,97472.38
2018-07-01T17:52:17.274Z,97474.08
2018-07-01T17:54:47.939Z,97474.91
2018-07-01T17:57:18.356Z,97481.06
2018-07-01T17:59:48.136Z,97476.13
2018-07-01T18:02:18.285Z,97470.61
2018-07-01T18:04:47.937Z,97480.06
2018-07-01T18:07:17.846Z,97486.58
2018-07-01T18:09:47.812Z,97482.44
2018-07-01T18:12:17.627Z,97485.31
2018-07-01T18:14:47.522Z,97486.31
2018-07-01T18:17:17.502Z,97488.70
2018-07-01T18:19:47.188Z,97499.42
2018-07-01T18:22:35.923Z,97492.83
2018-07-01T18:25:01.543Z,97494.65
2018-07-01T18:27:17.133Z,97494.89
2018-07-01T18:29:47.084Z,97496.72
2018-07-01T18:32:16.946Z,97492.19
2018-07-01T18:34:47.606Z,97494.28
2018-07-01T18:37:17.524Z,97492.92
2018-07-01T18:39:47.324Z,97494.36
2018-07-01T18:42:17.321Z,97502.85
2018-07-01T18:44:47.588Z,97494.71
2018-07-01T18:47:17.432Z,97502.73
2018-07-01T18:49:47.212Z,97514.14
2018-07-01T18:52:17.155Z,97515.55
2018-07-01T18:54:47.005Z,97517.16
2018-07-01T18:57:17.083Z,97525.49
2018-07-01T18:59:47.224Z,97530.28
2018-07-01T19:02:17.287Z,97536.47
2018-07-01T19:04:47.412Z,97533.23
2018-07-01T19:07:17.470Z,97543.03
2018-07-01T19:09:47.458Z,97549.58
2018-07-01T19:12:17.360Z,97558.39
2018-07-01T19:14:47.123Z,97555.17
2018-07-01T19:17:17.075Z,97560.66
2018-07-01T19:19:47.184Z,97567.75
2018-07-01T19:22:17.080Z,97580.38
2018-07-01T19:24:47.197Z,97573.70
2018-07-01T19:27:17.040Z,97572.02
2018-07-01T19:29:46.988Z,97575.41
2018-07-01T19:32:16.941Z,97583.46
2018-07-01T19:34:46.761Z,97585.41
2018-07-01T19:37:16.775Z,97585.05
2018-07-01T19:39:46.701Z,97590.58
2018-07-01T19:42:16.765Z,97590.25
2018-07-01T19:44:46.746Z,97592.27
2018-07-01T19:47:16.719Z,97599.28
2018-07-01T19:49:46.851Z,97595.84
2018-07-01T19:52:16.880Z,97605.48
2018-07-01T19:54:46.732Z,97599.52
2018-07-01T19:57:16.801Z,97600.17
2018-07-01T19:59:46.836Z,97603.11
2018-07-01T20:02:16.949Z,97607.29
2018-07-01T20:04:47.082Z,97611.08
2018-07-01T20:07:17.728Z,97617.84
2018-07-01T20:09:47.937Z,97620.41
2018-07-01T20:12:19.353Z,97629.14
2018-07-01T20:14:49.337Z,97629.11
2018-07-01T20:17:21.308Z,97630.55
2018-07-01T20:19:51.166Z,97628.54
2018-07-01T20:22:22.405Z,97632.13
2018-07-01T20:24:52.415Z,97632.32
2018-07-01T20:27:23.855Z,97640.55
2018-07-01T20:29:54.068Z,97640.17
2018-07-01T20:32:25.032Z,97637.44
2018-07-01T20:34:55.263Z,97639.42
2018-07-01T20:37:26.738Z,97641.62
2018-07-01T20:39:57.135Z,97644.59
2018-07-01T20:42:28.264Z,97648.19
2018-07-01T20:44:58.616Z,97644.29
2018-07-01T20:47:29.899Z,97649.23
2018-07-01T20:50:00.115Z,97650.44
2018-07-01T20:52:31.194Z,97642.71
2018-07-01T20:55:01.810Z,97643.30
2018-07-01T20:57:32.863Z,97643.91
2018-07-01T21:00:03.206Z,97641.07
2018-07-01T21:02:34.095Z,97648.11
2018-07-01T21:05:03.997Z,97640.95
2018-07-01T21:07:35.509Z,97649.10
2018-07-01T21:10:06.157Z,97642.69
2018-07-01T21:12:37.266Z,97646.52
2018-07-01T21:15:07.165Z,97650.83
2018-07-01T21:17:38.973Z,97647.25
2018-07-01T21:20:08.979Z,97648.82
2018-07-01T21:22:40.191Z,97654.00
2018-07-01T21:25:10.158Z,97654.73
2018-07-01T21:27:41.692Z,97654.15
2018-07-01T21:30:11.495Z,97648.19
2018-07-01T21:32:42.894Z,97646.25
2018-07-01T21:35:12.911Z,97653.57
2018-07-01T21:37:44.358Z,97650.36
2018-07-01T21:40:14.180Z,97655.03
2018-07-01T21:42:45.164Z,97655.38
2018-07-01T21:45:15.270Z,97652.77
2018-07-01T21:47:46.565Z,97651.82
2018-07-01T21:50:16.467Z,97657.08
2018-07-01T21:52:48.134Z,97652.77
2018-07-01T21:55:18.074Z,97646.44
2018-07-01T21:57:49.734Z,97648.23
2018-07-01T22:00:24.663Z,97651.33
2018-07-01T22:02:54.590Z,97651.11
2018-07-01T22:05:24.324Z,97652.91
2018-07-01T22:07:54.294Z,97650.74
2018-07-01T22:10:34.844Z,97652.91
2018-07-01T22:14:08.789Z,97656.86
2018-07-01T22:16:38.825Z,97656.82
2018-07-01T22:19:09.092Z,97654.92
2018-07-01T22:21:39.173Z,97653.23
2018-07-01T22:24:09.616Z,97655.53
2018-07-01T22:26:39.743Z,97650.61
2018-07-01T22:29:10.474Z,97646.45
2018-07-01T22:31:40.439Z,97647.52
2018-07-01T22:34:11.504Z,97648.09
2018-07-01T22:36:42.099Z,97645.95
2018-07-01T22:39:17.711Z,97649.20
2018-07-01T22:41:48.236Z,97647.39
2018-07-01T22:44:18.361Z,97646.80
2018-07-01T22:46:49.055Z,97645.36
2018-07-01T22:49:19.012Z,97647.03
2018-07-01T22:51:48.843Z,97646.33
2018-07-01T22:54:18.792Z,97648.84
2018-07-01T22:56:49.196Z,97643.70
2018-07-01T22:59:19.110Z,97648.60
2018-07-01T23:03:08.025Z,97647.89
2018-07-01T23:05:38.083Z,97641.44
2018-07-01T23:08:08.003Z,97643.81
2018-07-01T23:10:38.107Z,97643.36
2018-07-01T23:13:08.139Z,97646.23
2018-07-01T23:15:38.240Z,97641.31
2018-07-01T23:18:08.039Z,97644.05
2018-07-01T23:20:38.858Z,97646.46
2018-07-01T23:23:08.718Z,97641.33
2018-07-01T23:25:38.576Z,97648.84
2018-07-01T23:28:08.601Z,97646.94
2018-07-01T23:30:38.685Z,97641.31
2018-07-01T23:33:08.511Z,97646.11
2018-07-01T23:35:38.523Z,97652.80
2018-07-01T23:38:08.302Z,97649.45
2018-07-01T23:40:38.293Z,97649.34
2018-07-01T23:43:08.154Z,97641.09
2018-07-01T23:45:38.065Z,97636.89
2018-07-01T23:48:08.621Z,97642.65
2018-07-01T23:50:38.454Z,97641.69
2018-07-01T23:53:08.313Z,97639.41
2018-07-01T23:55:38.240Z,97644.41
2018-07-01T23:58:08.328Z,97636.52
